Time;durP1;ratioP1;P1;durP2;ratioP2;P2;SDS_P1;SDS_P2;PMS_P1;PMS_P2;Temp;Humidity;BMP_temperature;BMP_pressure;BME280_temperature;BME280_humidity;BME280_pressure;Samples;Min_cycle;Max_cycle;Signal;HPM_P1;HPM_P2
2021/04/20 00:00:21;;;;;;;5.65;4.30;;;7.60;97.20;;;;;;5111003;28;20040;-48
2021/04/20 00:03:25;;;;;;;12.02;7.03;;;7.50;97.60;;;;;;5111253;28;20039;-49
2021/04/20 00:06:29;;;;;;;10.73;6.63;;;7.40;97.80;;;;;;5110328;28;20050;-48
2021/04/20 00:09:34;;;;;;;8.52;5.10;;;7.40;98.00;;;;;;5111100;28;20050;-49
2021/04/20 00:12:38;;;;;;;12.25;7.30;;;7.30;98.70;;;;;;5110818;28;20036;-50
2021/04/20 00:15:43;;;;;;;8.90;5.35;;;7.30;98.60;;;;;;5110926;28;20039;-49
2021/04/20 00:18:47;;;;;;;10.77;6.75;;;7.30;98.50;;;;;;5110027;28;20405;-48
2021/04/20 00:21:51;;;;;;;6.75;4.90;;;7.30;98.60;;;;;;5110598;28;20046;-49
2021/04/20 00:24:55;;;;;;;7.60;4.47;;;7.30;98.70;;;;;;5110858;28;20040;-48
2021/04/20 00:27:59;;;;;;;5.82;4.57;;;7.40;98.30;;;;;;5097444;28;20035;-48
2021/04/20 00:31:03;;;;;;;7.20;4.65;;;7.40;98.10;;;;;;5110832;28;20035;-48
2021/04/20 00:34:14;;;;;;;7.93;4.85;;;7.40;98.40;;;;;;5110626;28;20031;-49
2021/04/20 00:37:18;;;;;;;7.47;5.00;;;7.40;98.30;;;;;;5109815;28;20048;-49
2021/04/20 00:40:22;;;;;;;8.90;4.75;;;7.30;98.70;;;;;;5110606;28;20047;-48
2021/04/20 00:43:39;;;;;;;8.40;5.00;;;7.20;99.10;;;;;;5109988;28;20039;-49
2021/04/20 00:46:43;;;;;;;6.05;4.30;;;7.10;99.60;;;;;;5109531;28;20044;-48
2021/04/20 00:49:47;;;;;;;7.47;4.93;;;7.10;99.90;;;;;;5110414;28;20471;-48
2021/04/20 00:52:52;;;;;;;7.63;4.90;;;7.00;99.90;;;;;;5097427;28;20015;-48
2021/04/20 00:55:58;;;;;;;10.57;8.48;;;6.90;99.90;;;;;;5097328;28;20399;-49
2021/04/20 00:59:02;;;;;;;9.82;7.40;;;6.90;99.90;;;;;;5097329;28;20055;-48
2021/04/20 01:02:07;;;;;;;8.77;6.35;;;6.90;99.90;;;;;;5110072;28;20043;-49
2021/04/20 01:05:14;;;;;;;12.55;6.90;;;6.80;99.90;;;;;;5110150;28;20027;-49
2021/04/20 01:08:22;;;;;;;7.97;5.68;;;6.70;99.90;;;;;;5109812;28;20043;-49
2021/04/20 01:11:27;;;;;;;7.30;4.15;;;6.70;99.90;;;;;;5110105;28;20023;-48
2021/04/20 01:14:31;;;;;;;7.07;4.55;;;6.60;99.90;;;;;;5109941;28;20027;-48
2021/04/20 01:17:36;;;;;;;6.85;4.90;;;6.60;99.90;;;;;;5109857;28;20035;-49
2021/04/20 01:20:45;;;;;;;7.28;4.57;;;6.50;99.90;;;;;;5109569;28;20059;-49
2021/04/20 01:24:08;;;;;;;9.63;5.10;;;6.60;99.90;;;;;;5109982;28;20032;-48
2021/04/20 01:27:12;;;;;;;7.60;5.13;;;6.60;99.90;;;;;;5108875;28;20044;-52
2021/04/20 01:30:17;;;;;;;7.40;5.07;;;6.60;99.90;;;;;;5109980;28;20036;-48
2021/04/20 01:33:21;;;;;;;9.27;5.30;;;6.50;99.90;;;;;;5109864;28;20039;-50
2021/04/20 01:36:27;;;;;;;11.35;5.30;;;6.50;99.90;;;;;;5109721;28;20044;-49
2021/04/20 01:39:31;;;;;;;8.00;4.57;;;6.40;99.90;;;;;;5109172;28;20062;-49
2021/04/20 01:42:35;;;;;;;7.72;5.38;;;6.20;99.90;;;;;;5109447;28;20036;-48
2021/04/20 01:45:42;;;;;;;6.90;5.40;;;6.10;99.90;;;;;;5109572;28;20048;-51
2021/04/20 01:48:47;;;;;;;8.35;5.57;;;6.00;99.90;;;;;;5109601;28;20036;-49
2021/04/20 01:51:52;;;;;;;9.13;5.35;;;5.80;99.90;;;;;;5108839;28;20048;-50
2021/04/20 01:54:56;;;;;;;10.10;5.88;;;5.70;99.90;;;;;;5109692;28;20039;-51
2021/04/20 01:58:02;;;;;;;11.15;6.72;;;5.70;99.90;;;;;;5109178;28;20050;-49
2021/04/20 02:01:15;;;;;;;16.92;6.97;;;5.70;99.90;;;;;;5109667;28;20046;-51
2021/04/20 02:04:19;;;;;;;10.68;6.55;;;5.70;99.90;;;;;;5109501;28;20039;-50
2021/04/20 02:07:23;;;;;;;11.90;7.13;;;5.70;99.90;;;;;;5108895;28;20036;-50
2021/04/20 02:10:27;;;;;;;11.32;6.93;;;5.70;99.90;;;;;;5109655;28;20042;-49
2021/04/20 02:13:32;;;;;;;13.63;7.47;;;5.80;99.90;;;;;;5109116;28;20520;-50
2021/04/20 02:16:37;;;;;;;12.40;7.75;;;5.80;99.90;;;;;;5109172;28;20038;-48
2021/04/20 02:19:43;;;;;;;10.25;7.00;;;5.90;99.90;;;;;;5109382;28;20054;-53
2021/04/20 02:22:49;;;;;;;10.77;5.95;;;5.90;99.90;;;;;;5109377;28;20058;-49
2021/04/20 02:25:55;;;;;;;11.38;5.93;;;6.00;99.90;;;;;;5108893;28;20062;-49
2021/04/20 02:29:04;;;;;;;8.20;5.72;;;6.00;99.90;;;;;;5108929;28;20047;-54
2021/04/20 02:32:09;;;;;;;10.43;6.00;;;5.90;99.90;;;;;;5109574;28;20289;-54
2021/04/20 02:35:16;;;;;;;10.23;6.70;;;5.90;99.90;;;;;;5113445;28;20382;-54
2021/04/20 02:38:20;;;;;;;12.55;7.18;;;5.90;99.90;;;;;;5112595;28;20050;-53
2021/04/20 02:41:27;;;;;;;11.45;7.45;;;5.90;99.90;;;;;;5112968;28;20039;-50
2021/04/20 02:44:31;;;;;;;11.05;7.28;;;5.80;99.90;;;;;;5112123;28;20046;-53
2021/04/20 02:47:35;;;;;;;10.45;6.88;;;5.80;99.90;;;;;;5112278;28;20595;-49
2021/04/20 02:50:42;;;;;;;11.27;7.22;;;5.80;99.90;;;;;;5113272;28;20047;-53
2021/04/20 02:53:47;;;;;;;10.77;7.03;;;5.90;99.90;;;;;;5112822;28;20035;-52
2021/04/20 02:56:52;;;;;;;10.70;7.10;;;5.80;99.90;;;;;;5112403;28;20050;-53
2021/04/20 02:59:57;;;;;;;9.50;6.28;;;5.80;99.90;;;;;;5112297;28;20043;-53
2021/04/20 03:03:02;;;;;;;12.43;8.30;;;5.90;99.90;;;;;;5112369;28;20035;-50
2021/04/20 03:06:07;;;;;;;13.05;8.82;;;6.00;99.90;;;;;;5112335;28;20047;-50
2021/04/20 03:09:12;;;;;;;11.30;6.50;;;6.10;99.90;;;;;;5112082;28;20113;-54
2021/04/20 03:12:17;;;;;;;11.68;7.57;;;6.10;99.90;;;;;;5099823;28;20051;-50
2021/04/20 03:15:22;;;;;;;10.57;6.47;;;6.00;99.90;;;;;;5112243;28;20046;-51
2021/04/20 03:18:26;;;;;;;14.02;6.80;;;5.80;99.90;;;;;;5112468;28;20039;-49
2021/04/20 03:21:32;;;;;;;8.93;6.55;;;5.70;99.90;;;;;;5112121;28;20035;-52
2021/04/20 03:25:11;;;;;;;9.98;6.72;;;5.50;99.90;;;;;;5112274;28;20039;-49
2021/04/20 03:28:17;;;;;;;11.00;7.20;;;5.40;99.90;;;;;;5111738;28;20043;-54
2021/04/20 03:31:21;;;;;;;11.18;7.07;;;5.20;99.90;;;;;;5111866;28;20050;-48
2021/04/20 03:34:33;;;;;;;10.13;6.28;;;5.20;99.90;;;;;;5111664;28;20042;-52
2021/04/20 03:37:42;;;;;;;;;;;5.10;99.90;;;;;;5111828;28;20050;-54
2021/04/20 03:40:51;;;;;;;11.70;7.72;;;5.00;99.90;;;;;;5111137;28;20417;-50
2021/04/20 03:43:59;;;;;;;15.15;8.38;;;4.90;99.90;;;;;;5111029;28;20043;-52
2021/04/20 03:47:07;;;;;;;12.85;8.00;;;4.80;99.90;;;;;;5111082;28;20039;-48
2021/04/20 03:50:17;;;;;;;14.48;9.45;;;4.70;99.90;;;;;;5110905;28;20441;-49
2021/04/20 03:53:23;;;;;;;17.00;10.02;;;4.70;99.90;;;;;;5110975;28;20038;-52
2021/04/20 03:56:29;;;;;;;14.88;9.27;;;4.70;99.90;;;;;;5110696;28;20054;-54
2021/04/20 03:59:35;;;;;;;12.38;8.60;;;4.80;99.90;;;;;;5111249;28;20109;-48
2021/04/20 04:02:41;;;;;;;14.85;9.77;;;4.80;99.90;;;;;;5111362;28;20421;-51
2021/04/20 04:05:48;;;;;;;17.90;10.50;;;4.80;99.90;;;;;;5110854;28;20106;-52
2021/04/20 04:08:53;;;;;;;15.20;9.48;;;4.90;99.90;;;;;;5111346;28;20034;-54
2021/04/20 04:12:05;;;;;;;13.73;9.15;;;5.10;99.90;;;;;;5110960;28;20039;-49
2021/04/20 04:15:11;;;;;;;14.13;9.60;;;5.10;99.90;;;;;;5110944;28;20038;-48
2021/04/20 04:18:16;;;;;;;15.50;9.77;;;5.10;99.90;;;;;;5111137;28;20284;-48
2021/04/20 04:21:29;;;;;;;16.58;9.80;;;5.10;99.90;;;;;;5104720;28;20035;-49
2021/04/20 04:24:39;;;;;;;15.55;9.65;;;5.10;99.90;;;;;;5102101;28;20051;-50
2021/04/20 04:27:46;;;;;;;17.67;9.07;;;5.10;99.90;;;;;;5107601;28;20035;-53
2021/04/20 04:30:51;;;;;;;17.98;11.13;;;5.10;99.90;;;;;;5104560;28;20038;-50
2021/04/20 04:33:56;;;;;;;17.42;10.23;;;5.00;99.90;;;;;;5110244;28;20035;-52
2021/04/20 04:37:02;;;;;;;15.70;10.27;;;5.00;99.90;;;;;;5095933;28;20035;-49
2021/04/20 04:40:08;;;;;;;17.83;11.48;;;4.90;99.90;;;;;;5109390;28;20043;-48
2021/04/20 04:43:12;;;;;;;16.88;10.50;;;4.90;99.90;;;;;;5109953;28;20421;-50
2021/04/20 04:46:19;;;;;;;16.20;9.50;;;4.90;99.90;;;;;;5109910;28;20038;-48
2021/04/20 04:49:25;;;;;;;16.17;10.43;;;4.90;99.90;;;;;;5091349;28;20403;-51
2021/04/20 04:52:32;;;;;;;19.08;10.25;;;5.00;99.90;;;;;;5107301;28;20429;-51
2021/04/20 04:55:37;;;;;;;16.65;10.30;;;5.10;99.90;;;;;;5108829;28;20657;-50
2021/04/20 04:58:42;;;;;;;14.02;10.10;;;5.10;99.90;;;;;;5110316;28;20043;-49
2021/04/20 05:01:47;;;;;;;13.25;9.45;;;5.30;99.90;;;;;;5109330;28;20062;-49
2021/04/20 05:04:51;;;;;;;14.20;8.90;;;5.40;99.90;;;;;;5095716;28;20492;-50
2021/04/20 05:07:59;;;;;;;20.85;10.10;;;5.40;99.90;;;;;;5107338;28;20054;-48
2021/04/20 05:11:04;;;;;;;19.08;9.82;;;5.40;99.90;;;;;;5108720;28;20034;-50
2021/04/20 05:14:10;;;;;;;18.23;10.15;;;5.50;99.90;;;;;;5105671;28;20030;-52
2021/04/20 05:17:15;;;;;;;15.13;10.45;;;5.60;99.90;;;;;;5104254;28;20500;-48
2021/04/20 05:20:20;;;;;;;15.75;9.45;;;6.10;99.90;;;;;;5105797;28;20050;-48
2021/04/20 05:23:24;;;;;;;13.93;9.07;;;8.70;99.90;;;;;;5108413;28;20046;-53
2021/04/20 05:26:29;;;;;;;14.02;8.25;;;10.50;99.90;;;;;;5107969;28;20743;-48
2021/04/20 05:29:34;;;;;;;14.15;8.07;;;11.70;99.90;;;;;;5109895;28;20039;-48
2021/04/20 05:32:40;;;;;;;12.35;7.82;;;10.60;99.90;;;;;;5110078;28;20035;-49
2021/04/20 05:35:46;;;;;;;11.95;8.10;;;10.10;99.90;;;;;;5097413;28;20034;-48
2021/04/20 05:38:55;;;;;;;13.80;8.00;;;11.60;99.90;;;;;;5097560;28;20043;-49
2021/04/20 05:42:00;;;;;;;12.10;8.05;;;14.00;99.90;;;;;;5108785;28;20423;-53
2021/04/20 05:45:07;;;;;;;10.48;7.80;;;15.40;99.90;;;;;;5109064;28;20039;-50
2021/04/20 05:48:11;;;;;;;11.30;8.45;;;16.30;99.00;;;;;;5106555;28;20038;-49
2021/04/20 05:51:20;;;;;;;11.18;7.88;;;16.90;97.50;;;;;;5107089;28;20106;-49
2021/04/20 05:54:24;;;;;;;13.18;8.50;;;16.70;96.20;;;;;;5109522;28;20113;-52
2021/04/20 05:57:28;;;;;;;14.82;8.80;;;16.30;96.60;;;;;;5106319;28;20554;-49
2021/04/20 06:00:32;;;;;;;11.20;8.20;;;16.00;97.20;;;;;;5104702;28;20252;-49
2021/04/20 06:03:39;;;;;;;11.65;8.55;;;17.50;95.70;;;;;;5109184;28;20050;-48
2021/04/20 06:06:44;;;;;;;12.75;8.77;;;17.10;97.70;;;;;;5102429;28;20049;-51
2021/04/20 06:09:48;;;;;;;12.82;8.13;;;17.60;95.40;;;;;;5112139;28;20039;-49
2021/04/20 06:12:52;;;;;;;11.40;8.15;;;18.00;95.30;;;;;;5112922;28;20051;-49
2021/04/20 06:15:56;;;;;;;9.40;7.03;;;18.60;94.50;;;;;;5111857;28;20042;-50
2021/04/20 06:19:02;;;;;;;9.02;7.30;;;18.70;93.30;;;;;;5111290;28;20039;-49
2021/04/20 06:22:17;;;;;;;8.15;6.35;;;19.10;92.10;;;;;;5112416;28;20712;-49
2021/04/20 06:25:21;;;;;;;11.57;7.63;;;19.90;91.10;;;;;;5112904;28;20043;-55
2021/04/20 06:28:26;;;;;;;9.32;7.18;;;18.70;90.10;;;;;;5110051;28;20320;-49
2021/04/20 06:31:33;;;;;;;12.07;8.00;;;19.50;90.10;;;;;;5111473;28;20055;-58
2021/04/20 06:34:38;;;;;;;10.45;7.95;;;16.90;91.80;;;;;;5091234;28;20387;-49
2021/04/20 06:37:45;;;;;;;8.85;7.10;;;16.40;92.00;;;;;;5099791;28;20047;-48
2021/04/20 06:40:52;;;;;;;10.77;7.22;;;15.80;93.90;;;;;;5113027;28;20074;-49
2021/04/20 06:44:25;;;;;;;9.95;7.90;;;15.60;93.80;;;;;;5112656;28;20481;-52
2021/04/20 06:47:50;;;;;;;10.95;8.20;;;14.60;94.80;;;;;;5112214;28;20058;-49
2021/04/20 06:50:56;;;;;;;13.07;9.43;;;14.60;95.60;;;;;;5112532;28;20035;-49
2021/04/20 06:54:35;;;;;;;10.60;8.35;;;14.20;96.20;;;;;;5110975;28;20097;-50
2021/04/20 06:57:42;;;;;;;14.10;8.35;;;15.50;95.30;;;;;;5107752;28;20050;-49
2021/04/20 07:00:52;;;;;;;9.88;7.68;;;15.40;94.70;;;;;;5110985;28;20055;-49
2021/04/20 07:04:13;;;;;;;13.80;9.32;;;16.20;93.60;;;;;;5092034;28;20062;-49
2021/04/20 07:07:26;;;;;;;16.52;10.70;;;16.50;93.60;;;;;;5108909;28;20047;-49
2021/04/20 07:10:36;;;;;;;18.73;12.20;;;17.90;92.40;;;;;;5107612;28;20047;-49
2021/04/20 07:13:52;;;;;;;17.92;12.68;;;19.30;91.50;;;;;;5110238;28;20039;-51
2021/04/20 07:17:05;;;;;;;14.65;11.52;;;20.80;89.90;;;;;;5111952;28;20047;-53
2021/04/20 07:20:32;;;;;;;12.30;9.98;;;19.60;86.90;;;;;;5099914;28;20526;-50
2021/04/20 07:24:13;;;;;;;14.50;9.70;;;19.50;89.00;;;;;;5111415;28;20054;-51
2021/04/20 07:27:28;;;;;;;11.88;8.85;;;21.40;86.90;;;;;;5095706;28;20508;-51
2021/04/20 07:30:51;;;;;;;10.48;8.27;;;20.80;83.40;;;;;;5112064;28;20047;-53
2021/04/20 07:34:22;;;;;;;10.85;8.60;;;21.70;83.60;;;;;;5110343;28;20433;-52
2021/04/20 07:37:44;;;;;;;10.63;8.07;;;18.00;87.10;;;;;;5097376;28;20054;-50
2021/04/20 07:40:48;;;;;;;9.38;7.38;;;20.10;86.80;;;;;;5108514;28;20516;-53
2021/04/20 07:44:00;;;;;;;14.07;7.72;;;20.90;84.90;;;;;;5107869;28;20047;-49
2021/04/20 07:47:13;;;;;;;13.68;7.82;;;19.10;85.20;;;;;;5109685;28;20058;-50
2021/04/20 07:50:24;;;;;;;9.40;7.35;;;20.20;85.00;;;;;;5110923;28;20533;-49
2021/04/20 07:53:36;;;;;;;13.57;7.82;;;19.00;84.60;;;;;;5098389;28;20046;-49
2021/04/20 07:56:56;;;;;;;9.40;7.50;;;18.50;86.60;;;;;;5098605;28;20559;-50
2021/04/20 08:00:17;;;;;;;15.02;7.55;;;19.80;85.20;;;;;;5111768;28;20051;-49
2021/04/20 08:03:41;;;;;;;11.32;7.82;;;19.40;84.30;;;;;;5110468;28;20042;-50
2021/04/20 08:06:48;;;;;;;8.82;7.28;;;20.30;83.80;;;;;;5089689;28;20390;-49
2021/04/20 08:09:55;;;;;;;7.97;6.32;;;21.50;82.60;;;;;;5090570;28;20059;-49
2021/04/20 08:13:04;;;;;;;8.57;6.65;;;23.30;78.90;;;;;;5089851;28;20517;-50
2021/04/20 08:16:30;;;;;;;8.90;6.53;;;25.30;76.10;;;;;;5101228;28;20390;-50
2021/04/20 08:19:41;;;;;;;9.18;6.50;;;24.90;73.20;;;;;;5107976;28;20524;-51
2021/04/20 08:22:50;;;;;;;10.90;8.65;;;27.10;71.80;;;;;;5088893;28;20046;-53
2021/04/20 08:26:02;;;;;;;9.65;7.05;;;25.10;70.90;;;;;;5109100;28;20046;-51
2021/04/20 08:29:15;;;;;;;7.65;6.65;;;25.70;71.50;;;;;;5082865;28;20050;-50
2021/04/20 08:32:21;;;;;;;;;;;25.50;70.00;;;;;;5103235;28;20047;-49
2021/04/20 08:35:29;;;;;;;10.15;8.27;;;26.90;67.30;;;;;;5106414;28;19973;-51
2021/04/20 08:38:56;;;;;;;10.48;6.88;;;25.70;67.90;;;;;;5107106;28;20062;-50
2021/04/20 08:42:07;;;;;;;8.80;6.25;;;24.60;69.10;;;;;;5107764;28;20054;-51
2021/04/20 08:45:18;;;;;;;8.60;6.10;;;27.10;68.30;;;;;;5108672;28;20046;-51
2021/04/20 08:48:50;;;;;;;6.40;5.72;;;30.00;65.00;;;;;;5106476;28;20301;-50
2021/04/20 08:52:02;;;;;;;10.43;5.55;;;31.30;62.20;;;;;;5109205;28;20038;-51
2021/04/20 08:55:06;;;;;;;6.18;4.70;;;32.60;59.40;;;;;;5094847;28;20051;-50
2021/04/20 08:58:38;;;;;;;5.43;4.00;;;34.20;56.40;;;;;;5106967;28;20054;-52
2021/04/20 09:01:48;;;;;;;5.85;3.88;;;35.00;53.00;;;;;;5088230;28;20042;-49
2021/04/20 09:05:15;;;;;;;5.13;4.30;;;35.20;51.60;;;;;;5102663;28;20039;-53
2021/04/20 09:08:35;;;;;;;8.80;4.30;;;32.20;50.80;;;;;;5106490;28;20039;-52
2021/04/20 09:12:00;;;;;;;5.95;5.00;;;32.30;51.60;;;;;;5106617;28;20042;-51
2021/04/20 09:15:05;;;;;;;6.28;3.95;;;32.60;50.50;;;;;;5107039;28;20043;-54
2021/04/20 09:18:16;;;;;;;6.38;4.45;;;33.80;50.90;;;;;;5109747;28;20425;-52
2021/04/20 09:21:40;;;;;;;5.55;4.05;;;34.60;49.80;;;;;;5109525;28;20050;-50
2021/04/20 09:25:08;;;;;;;4.35;3.85;;;35.70;48.60;;;;;;5107246;28;20042;-54
2021/04/20 09:28:29;;;;;;;6.28;4.40;;;36.20;47.70;;;;;;5105768;28;20039;-52
2021/04/20 09:31:36;;;;;;;6.88;4.07;;;35.90;46.50;;;;;;5108840;28;20067;-51
2021/04/20 09:34:43;;;;;;;4.10;3.70;;;36.60;46.30;;;;;;5091683;28;20051;-50
2021/04/20 09:37:48;;;;;;;4.95;4.18;;;37.10;46.20;;;;;;5106975;28;20058;-49
2021/04/20 09:40:54;;;;;;;4.95;4.00;;;37.40;45.00;;;;;;5096435;28;20055;-52
2021/04/20 09:44:24;;;;;;;6.30;4.40;;;37.70;44.30;;;;;;5110201;28;20413;-49
2021/04/20 09:47:56;;;;;;;7.07;6.38;;;36.00;43.00;;;;;;5108947;28;20043;-51
2021/04/20 09:51:20;;;;;;;8.65;6.38;;;31.60;45.30;;;;;;5113306;28;20543;-49
2021/04/20 09:54:31;;;;;;;7.13;6.43;;;29.70;48.90;;;;;;5111702;28;20051;-49
2021/04/20 09:57:40;;;;;;;8.73;7.90;;;32.10;47.60;;;;;;5093059;28;20059;-52
2021/04/20 10:00:45;;;;;;;7.82;7.00;;;34.50;45.20;;;;;;5109494;28;20055;-51
2021/04/20 10:03:57;;;;;;;8.73;7.05;;;36.50;43.70;;;;;;5109477;28;20067;-50
2021/04/20 10:07:19;;;;;;;8.45;7.03;;;36.70;43.20;;;;;;5105731;28;20051;-53
2021/04/20 10:10:29;;;;;;;10.27;9.27;;;36.80;42.60;;;;;;5101143;28;20082;-54
2021/04/20 10:13:52;;;;;;;8.68;7.78;;;36.80;41.30;;;;;;5112526;28;20035;-51
2021/04/20 10:16:57;;;;;;;7.25;6.55;;;37.50;40.70;;;;;;5109638;28;20034;-56
2021/04/20 10:20:16;;;;;;;6.05;5.20;;;38.10;40.00;;;;;;5107610;28;20039;-50
2021/04/20 10:23:46;;;;;;;5.43;4.43;;;39.10;39.30;;;;;;5107907;28;20039;-54
2021/04/20 10:27:15;;;;;;;4.88;4.38;;;39.50;38.40;;;;;;5107233;28;20042;-51
2021/04/20 10:30:26;;;;;;;4.63;4.22;;;39.40;38.30;;;;;;5092793;28;20086;-50
2021/04/20 10:33:31;;;;;;;4.10;3.63;;;37.60;40.20;;;;;;5092398;28;20051;-55
2021/04/20 10:36:35;;;;;;;4.85;4.13;;;36.30;39.90;;;;;;5091975;28;20043;-52
2021/04/20 10:39:50;;;;;;;4.03;3.60;;;37.40;40.80;;;;;;5106292;28;20047;-53
2021/04/20 10:42:55;;;;;;;4.75;3.22;;;38.20;40.80;;;;;;5112682;28;20046;-50
2021/04/20 10:46:08;;;;;;;5.90;3.75;;;35.60;41.60;;;;;;5110389;28;20390;-49
2021/04/20 10:49:17;;;;;;;4.80;4.30;;;36.10;42.20;;;;;;5109378;28;20063;-53
2021/04/20 10:52:33;;;;;;;5.40;4.57;;;33.60;42.50;;;;;;5112052;28;20063;-50
2021/04/20 10:55:48;;;;;;;4.60;3.97;;;29.60;45.00;;;;;;5112021;28;20051;-51
2021/04/20 10:58:56;;;;;;;4.70;3.80;;;31.10;44.70;;;;;;5112178;28;20050;-52
2021/04/20 11:02:09;;;;;;;9.70;3.67;;;34.10;43.00;;;;;;5111300;28;20053;-55
2021/04/20 11:05:21;;;;;;;5.78;3.60;;;35.60;41.30;;;;;;5108228;28;20035;-56
2021/04/20 11:08:43;;;;;;;3.30;2.95;;;36.00;41.60;;;;;;5109130;28;20050;-53
2021/04/20 11:11:47;;;;;;;3.20;2.90;;;36.30;40.30;;;;;;5111951;28;20051;-49
2021/04/20 11:14:53;;;;;;;4.30;3.30;;;35.50;39.00;;;;;;5111065;28;20042;-52
2021/04/20 11:18:11;;;;;;;4.18;3.30;;;28.20;43.30;;;;;;5110153;28;20039;-51
2021/04/20 11:21:24;;;;;;;6.03;3.35;;;31.00;42.80;;;;;;5098729;28;20043;-52
2021/04/20 11:24:35;;;;;;;6.13;3.42;;;32.90;42.80;;;;;;5110392;28;20035;-48
2021/04/20 11:27:41;;;;;;;3.47;2.85;;;34.50;41.60;;;;;;5111810;28;20046;-50
2021/04/20 11:31:00;;;;;;;3.97;2.92;;;35.20;40.10;;;;;;5111130;28;20042;-51
2021/04/20 11:34:16;;;;;;;4.05;2.95;;;35.30;40.00;;;;;;5110377;28;20046;-51
2021/04/20 11:37:24;;;;;;;2.55;2.35;;;33.30;41.80;;;;;;5107977;27;20409;-53
2021/04/20 11:40:34;;;;;;;2.90;2.60;;;34.30;40.20;;;;;;5109240;27;20535;-51
2021/04/20 11:43:39;;;;;;;3.42;2.05;;;35.70;39.90;;;;;;5094566;28;20059;-55
2021/04/20 11:46:48;;;;;;;3.03;2.50;;;36.90;39.20;;;;;;5107701;28;20055;-54
2021/04/20 11:50:12;;;;;;;3.03;2.40;;;36.80;38.90;;;;;;5094347;28;20553;-51
2021/04/20 11:53:16;;;;;;;3.88;2.60;;;34.10;40.40;;;;;;5092091;27;20520;-51
2021/04/20 11:56:20;;;;;;;3.88;3.00;;;31.20;43.00;;;;;;5104640;27;20050;-49
2021/04/20 11:59:24;;;;;;;3.90;3.35;;;29.10;45.60;;;;;;5112091;27;20041;-50
2021/04/20 12:02:30;;;;;;;7.10;3.60;;;27.30;46.20;;;;;;5104018;27;20047;-48
2021/04/20 12:05:35;;;;;;;3.97;3.33;;;26.40;48.10;;;;;;5106959;28;20505;-49
2021/04/20 12:08:44;;;;;;;4.55;3.83;;;25.90;49.10;;;;;;5110599;27;20050;-49
2021/04/20 12:11:50;;;;;;;18.00;10.38;;;25.90;47.60;;;;;;5111616;27;20808;-51
2021/04/20 12:14:57;;;;;;;9.60;6.32;;;24.90;47.70;;;;;;5097160;27;20042;-49
2021/04/20 12:18:06;;;;;;;4.60;3.50;;;26.30;48.60;;;;;;5116851;27;20037;-51
2021/04/20 12:21:23;;;;;;;14.80;2.65;;;30.10;45.10;;;;;;5094331;28;20509;-49
2021/04/20 12:24:30;;;;;;;2.70;2.17;;;31.30;41.90;;;;;;5107448;27;20051;-51
2021/04/20 12:27:35;;;;;;;7.03;2.35;;;31.40;41.90;;;;;;5112868;27;20341;-51
2021/04/20 12:30:46;;;;;;;5.07;2.88;;;29.80;42.30;;;;;;5103810;28;20051;-52
2021/04/20 12:33:31;;;;;;;6.60;2.78;;;25.30;46.30;;;;;;5091512;27;20351;-51
2021/04/20 12:36:50;;;;;;;4.63;2.95;;;23.10;50.90;;;;;;5095021;28;20587;-50
2021/04/20 12:40:06;;;;;;;6.43;3.22;;;23.80;49.80;;;;;;5085067;28;20041;-52
2021/04/20 12:43:12;;;;;;;10.07;3.70;;;23.10;49.50;;;;;;5079579;28;20041;-48
2021/04/20 12:46:22;;;;;;;6.65;3.42;;;21.20;52.10;;;;;;5081517;28;20111;-49
2021/04/20 12:49:28;;;;;;;4.82;3.05;;;20.20;54.20;;;;;;5075111;28;20036;-52
2021/04/20 12:52:33;;;;;;;5.15;3.25;;;19.30;55.20;;;;;;5078584;28;20067;-53
2021/04/20 12:55:41;;;;;;;5.20;3.25;;;18.70;56.80;;;;;;5075175;28;20502;-48
2021/04/20 12:58:48;;;;;;;6.38;3.30;;;18.40;57.00;;;;;;5071661;28;20037;-48
2021/04/20 13:02:00;;;;;;;4.55;2.90;;;18.10;57.30;;;;;;5076600;28;20515;-50
2021/04/20 13:05:06;;;;;;;4.32;2.95;;;17.90;57.80;;;;;;5075499;28;20040;-51
2021/04/20 13:08:14;;;;;;;6.63;2.78;;;17.90;58.30;;;;;;5075744;28;20044;-51
2021/04/20 13:11:40;;;;;;;6.15;3.70;;;17.70;58.00;;;;;;5074975;28;20044;-49
2021/04/20 13:14:49;;;;;;;5.47;3.33;;;17.30;58.70;;;;;;5075868;28;20036;-53
2021/04/20 13:18:00;;;;;;;7.63;3.42;;;16.90;60.00;;;;;;5072870;28;20032;-50
2021/04/20 13:21:05;;;;;;;4.82;2.72;;;16.80;60.90;;;;;;5074490;28;20036;-53
2021/04/20 13:24:13;;;;;;;4.00;2.50;;;16.60;62.30;;;;;;5076594;28;20043;-49
2021/04/20 13:27:19;;;;;;;5.07;3.35;;;16.20;63.60;;;;;;5075041;28;20053;-51
2021/04/20 13:30:26;;;;;;;4.13;2.75;;;15.90;66.60;;;;;;5075539;28;20033;-50
2021/04/20 13:33:32;;;;;;;6.57;3.25;;;15.50;66.10;;;;;;5071429;28;20033;-50
2021/04/20 13:36:47;;;;;;;5.40;3.17;;;15.40;67.70;;;;;;5077493;28;20029;-51
2021/04/20 13:39:55;;;;;;;5.80;4.05;;;15.30;72.90;;;;;;5067764;28;20032;-50
2021/04/20 13:43:03;;;;;;;34.88;20.85;;;14.90;72.90;;;;;;5078769;28;20036;-48
2021/04/20 13:46:09;;;;;;;12.93;7.03;;;13.90;77.90;;;;;;5056344;28;20044;-48
2021/04/20 13:49:13;;;;;;;13.43;7.63;;;13.90;80.60;;;;;;5071701;28;20052;-49
2021/04/20 13:52:19;;;;;;;14.60;9.20;;;13.10;87.10;;;;;;5061483;28;20051;-54
2021/04/20 13:55:30;;;;;;;7.72;4.32;;;12.30;93.50;;;;;;5071802;28;20039;-48
2021/04/20 13:58:46;;;;;;;9.52;4.97;;;11.90;99.90;;;;;;5071020;28;20376;-48
2021/04/20 14:01:52;;;;;;;7.35;4.60;;;11.60;99.90;;;;;;5071792;28;20032;-49
2021/04/20 14:04:59;;;;;;;9.82;5.40;;;11.30;99.90;;;;;;5071679;28;20044;-52
2021/04/20 14:08:07;;;;;;;8.38;5.18;;;10.90;99.90;;;;;;5071181;28;20044;-51
2021/04/20 14:11:15;;;;;;;9.63;6.03;;;10.60;99.90;;;;;;5071557;28;20037;-48
2021/04/20 14:14:43;;;;;;;9.55;5.95;;;10.40;99.90;;;;;;5070964;28;20036;-48
2021/04/20 14:18:18;;;;;;;8.82;6.35;;;10.00;99.90;;;;;;5071301;28;20388;-50
2021/04/20 14:21:28;;;;;;;9.38;6.30;;;9.50;99.90;;;;;;5071111;28;20037;-50
2021/04/20 14:24:35;;;;;;;11.45;6.85;;;9.40;99.90;;;;;;5071474;28;20037;-49
2021/04/20 14:27:40;;;;;;;17.05;12.40;;;9.40;99.90;;;;;;5070473;28;20084;-49
2021/04/20 14:30:45;;;;;;;17.55;11.35;;;9.40;99.90;;;;;;5069096;28;20391;-53
2021/04/20 14:33:55;;;;;;;13.90;8.50;;;9.60;99.90;;;;;;5064353;28;20423;-52
2021/04/20 14:37:00;;;;;;;10.02;6.70;;;9.80;99.90;;;;;;5049017;28;20033;-50
2021/04/20 14:40:05;;;;;;;15.73;10.98;;;9.90;99.90;;;;;;5047589;28;20045;-49
2021/04/20 14:43:10;;;;;;;13.13;8.05;;;9.90;99.90;;;;;;5058971;28;20051;-49
2021/04/20 14:46:15;;;;;;;16.25;9.18;;;10.10;99.90;;;;;;5057995;28;20407;-53
2021/04/20 14:49:28;;;;;;;12.13;8.00;;;10.10;99.90;;;;;;5062157;28;20052;-51
2021/04/20 14:52:38;;;;;;;17.00;10.48;;;10.30;99.90;;;;;;5047635;28;20055;-49
2021/04/20 14:55:51;;;;;;;10.13;7.13;;;10.40;99.90;;;;;;5057384;28;20062;-51
2021/04/20 14:59:00;;;;;;;21.60;14.60;;;10.40;99.90;;;;;;5059188;28;20039;-49
2021/04/20 15:02:07;;;;;;;17.17;12.13;;;10.20;99.90;;;;;;5059716;28;20568;-53
2021/04/20 15:05:12;;;;;;;12.57;8.35;;;9.90;99.90;;;;;;5056427;28;21088;-52
2021/04/20 15:08:21;;;;;;;13.80;9.25;;;9.60;99.90;;;;;;5056632;28;20036;-49
2021/04/20 15:11:27;;;;;;;17.08;13.07;;;9.40;99.90;;;;;;5054394;28;20036;-48
2021/04/20 15:14:35;;;;;;;21.85;16.00;;;9.20;99.90;;;;;;5057563;28;20047;-51
2021/04/20 15:17:45;;;;;;;13.95;9.57;;;9.10;99.90;;;;;;5056147;28;20391;-53
2021/04/20 15:21:11;;;;;;;13.18;9.10;;;9.00;99.90;;;;;;5052028;28;20033;-49
2021/04/20 15:24:20;;;;;;;12.73;9.70;;;8.90;99.90;;;;;;5060549;28;20040;-49
2021/04/20 15:27:37;;;;;;;16.48;11.38;;;8.90;99.90;;;;;;5054437;28;20036;-48
2021/04/20 15:30:44;;;;;;;20.48;12.73;;;8.90;99.90;;;;;;5057049;28;20044;-49
2021/04/20 15:33:49;;;;;;;13.15;9.50;;;8.90;99.90;;;;;;5050985;28;20055;-50
2021/04/20 15:37:02;;;;;;;14.07;9.30;;;9.00;99.90;;;;;;5052534;28;20524;-52
2021/04/20 15:40:09;;;;;;;13.93;9.45;;;9.00;99.90;;;;;;5057532;28;20036;-49
2021/04/20 15:43:19;;;;;;;9.73;7.32;;;8.90;99.90;;;;;;5053913;28;20049;-49
2021/04/20 15:46:33;;;;;;;10.82;7.78;;;8.90;99.90;;;;;;5057799;28;20360;-52
2021/04/20 15:49:43;;;;;;;10.75;6.65;;;9.20;99.90;;;;;;5060092;28;20040;-49
2021/04/20 15:52:51;;;;;;;7.47;5.55;;;9.40;99.90;;;;;;5050042;28;20518;-49
2021/04/20 15:55:58;;;;;;;10.75;5.53;;;10.00;99.90;;;;;;5048828;28;20044;-49
2021/04/20 15:59:16;;;;;;;8.77;6.32;;;10.10;99.90;;;;;;5070538;28;20043;-49
2021/04/20 16:02:30;;;;;;;7.47;5.35;;;10.30;99.90;;;;;;5056250;28;20491;-48
2021/04/20 16:05:37;;;;;;;11.05;6.93;;;10.10;99.90;;;;;;5057589;28;20028;-49
2021/04/20 16:08:45;;;;;;;9.38;6.10;;;10.10;99.90;;;;;;5051587;28;20048;-49
2021/04/20 16:12:04;;;;;;;21.48;10.20;;;10.10;99.90;;;;;;5061780;28;20523;-49
2021/04/20 16:15:16;;;;;;;13.55;7.30;;;10.00;99.90;;;;;;5061560;28;20039;-51
2021/04/20 16:18:35;;;;;;;12.57;8.20;;;10.20;99.90;;;;;;5051156;28;20047;-49
2021/04/20 16:21:40;;;;;;;7.32;4.70;;;10.00;99.90;;;;;;5059190;28;20036;-49
2021/04/20 16:24:52;;;;;;;9.88;6.47;;;9.90;99.90;;;;;;5067227;28;20051;-48